sensor_id;sensor_type;location;lat;lon;timestamp;pressure;altitude;pressure_sealevel;temperature;humidity
48517;BME280;34310;51.904;4.256;2022-07-23T00:00:28;102033.00;;;22.79;57.15
48517;BME280;34310;51.904;4.256;2022-07-23T00:03:05;102024.09;;;22.75;57.46
48517;BME280;34310;51.904;4.256;2022-07-23T00:05:32;102027.56;;;22.74;57.34
48517;BME280;34310;51.904;4.256;2022-07-23T00:08:01;102029.38;;;22.75;57.50
48517;BME280;34310;51.904;4.256;2022-07-23T00:10:29;102024.94;;;22.74;57.64
48517;BME280;34310;51.904;4.256;2022-07-23T00:12:56;102017.88;;;22.73;57.26
48517;BME280;34310;51.904;4.256;2022-07-23T00:15:23;102021.41;;;22.74;57.37
48517;BME280;34310;51.904;4.256;2022-07-23T00:17:51;102026.66;;;22.74;57.46
48517;BME280;34310;51.904;4.256;2022-07-23T00:20:19;102021.34;;;22.72;57.69
48517;BME280;34310;51.904;4.256;2022-07-23T00:22:51;102019.56;;;22.71;57.70
48517;BME280;34310;51.904;4.256;2022-07-23T00:25:20;102011.66;;;22.71;57.53
48517;BME280;34310;51.904;4.256;2022-07-23T00:27:58;102008.13;;;22.71;57.70
48517;BME280;34310;51.904;4.256;2022-07-23T00:30:25;102008.13;;;22.71;57.44
48517;BME280;34310;51.904;4.256;2022-07-23T00:32:56;102014.22;;;22.70;57.88
48517;BME280;34310;51.904;4.256;2022-07-23T00:35:30;102010.69;;;22.69;57.84
48517;BME280;34310;51.904;4.256;2022-07-23T00:37:58;102002.72;;;22.68;57.83
48517;BME280;34310;51.904;4.256;2022-07-23T00:40:26;102002.72;;;22.68;57.99
48517;BME280;34310;51.904;4.256;2022-07-23T00:42:54;102001.84;;;22.67;58.04
48517;BME280;34310;51.904;4.256;2022-07-23T00:45:21;102007.94;;;22.66;57.91
48517;BME280;34310;51.904;4.256;2022-07-23T00:47:49;102008.84;;;22.67;57.98
48517;BME280;34310;51.904;4.256;2022-07-23T00:50:16;102010.56;;;22.66;57.96
48517;BME280;34310;51.904;4.256;2022-07-23T00:52:44;102011.47;;;22.67;57.96
48517;BME280;34310;51.904;4.256;2022-07-23T00:55:12;102007.88;;;22.65;58.02
48517;BME280;34310;51.904;4.256;2022-07-23T00:57:41;102004.34;;;22.64;58.15
48517;BME280;34310;51.904;4.256;2022-07-23T01:00:13;102002.56;;;22.63;58.21
48517;BME280;34310;51.904;4.256;2022-07-23T01:02:41;102006.09;;;22.64;58.27
48517;BME280;34310;51.904;4.256;2022-07-23T01:05:09;101998.13;;;22.62;58.07
48517;BME280;34310;51.904;4.256;2022-07-23T01:07:37;102002.50;;;22.62;58.18
48517;BME280;34310;51.904;4.256;2022-07-23T01:10:05;102001.59;;;22.61;58.13
48517;BME280;34310;51.904;4.256;2022-07-23T01:12:53;102005.97;;;22.61;58.50
48517;BME280;34310;51.904;4.256;2022-07-23T01:15:21;101995.44;;;22.61;58.25
48517;BME280;34310;51.904;4.256;2022-07-23T01:17:48;101990.13;;;22.59;58.43
48517;BME280;34310;51.904;4.256;2022-07-23T01:20:16;101991.84;;;22.59;58.43
48517;BME280;34310;51.904;4.256;2022-07-23T01:22:44;101995.31;;;22.58;58.57
48517;BME280;34310;51.904;4.256;2022-07-23T01:25:11;101997.94;;;22.58;58.48
48517;BME280;34310;51.904;4.256;2022-07-23T01:27:39;101989.16;;;22.57;58.55
48517;BME280;34310;51.904;4.256;2022-07-23T01:30:06;101987.38;;;22.56;58.34
48517;BME280;34310;51.904;4.256;2022-07-23T01:32:34;101997.00;;;22.55;58.60
48517;BME280;34310;51.904;4.256;2022-07-23T01:35:01;101991.63;;;22.54;58.57
48517;BME280;34310;51.904;4.256;2022-07-23T01:37:29;101988.09;;;22.53;58.67
48517;BME280;34310;51.904;4.256;2022-07-23T01:39:56;101995.09;;;22.53;58.84
48517;BME280;34310;51.904;4.256;2022-07-23T01:42:24;101995.09;;;22.53;58.65
48517;BME280;34310;51.904;4.256;2022-07-23T01:44:52;101996.78;;;22.51;58.58
48517;BME280;34310;51.904;4.256;2022-07-23T01:47:19;101993.31;;;22.52;58.59
48517;BME280;34310;51.904;4.256;2022-07-23T01:49:46;101983.63;;;22.51;58.76
48517;BME280;34310;51.904;4.256;2022-07-23T01:52:14;101992.28;;;22.48;58.72
48517;BME280;34310;51.904;4.256;2022-07-23T01:54:41;101986.13;;;22.48;58.79
48517;BME280;34310;51.904;4.256;2022-07-23T01:57:09;101986.13;;;22.48;58.95
48517;BME280;34310;51.904;4.256;2022-07-23T01:59:36;101988.75;;;22.48;58.96
48517;BME280;34310;51.904;4.256;2022-07-23T02:02:04;101988.75;;;22.48;58.89
48517;BME280;34310;51.904;4.256;2022-07-23T02:04:32;101987.81;;;22.46;59.05
48517;BME280;34310;51.904;4.256;2022-07-23T02:07:04;101993.00;;;22.44;59.06
48517;BME280;34310;51.904;4.256;2022-07-23T02:09:32;102000.91;;;22.44;59.06
48517;BME280;34310;51.904;4.256;2022-07-23T02:11:59;102002.63;;;22.44;59.06
48517;BME280;34310;51.904;4.256;2022-07-23T02:14:26;101992.03;;;22.42;59.10
48517;BME280;34310;51.904;4.256;2022-07-23T02:16:54;101987.63;;;22.41;59.05
48517;BME280;34310;51.904;4.256;2022-07-23T02:19:22;101983.25;;;22.42;59.09
48517;BME280;34310;51.904;4.256;2022-07-23T02:21:49;101977.09;;;22.41;58.94
48517;BME280;34310;51.904;4.256;2022-07-23T02:24:17;101985.81;;;22.40;59.05
48517;BME280;34310;51.904;4.256;2022-07-23T02:26:44;101983.19;;;22.40;59.26
48517;BME280;34310;51.904;4.256;2022-07-23T02:29:11;101985.75;;;22.39;59.18
48517;BME280;34310;51.904;4.256;2022-07-23T02:31:39;101987.56;;;22.40;59.19
48517;BME280;34310;51.904;4.256;2022-07-23T02:34:06;101990.06;;;22.37;59.27
48517;BME280;34310;51.904;4.256;2022-07-23T02:36:34;101990.97;;;22.37;59.34
48517;BME280;34310;51.904;4.256;2022-07-23T02:39:01;101997.97;;;22.37;59.31
48517;BME280;34310;51.904;4.256;2022-07-23T02:41:29;101998.81;;;22.36;59.27
48517;BME280;34310;51.904;4.256;2022-07-23T02:43:56;101998.81;;;22.36;59.45
48517;BME280;34310;51.904;4.256;2022-07-23T02:46:24;102001.38;;;22.34;59.50
48517;BME280;34310;51.904;4.256;2022-07-23T02:48:51;102002.25;;;22.35;59.34
48517;BME280;34310;51.904;4.256;2022-07-23T02:51:18;102001.38;;;22.34;59.33
48517;BME280;34310;51.904;4.256;2022-07-23T02:53:46;101996.94;;;22.33;59.30
48517;BME280;34310;51.904;4.256;2022-07-23T02:56:13;101994.31;;;22.33;59.46
48517;BME280;34310;51.904;4.256;2022-07-23T02:58:40;102000.41;;;22.32;59.54
48517;BME280;34310;51.904;4.256;2022-07-23T03:01:07;102005.59;;;22.31;59.42
48517;BME280;34310;51.904;4.256;2022-07-23T03:03:35;102006.44;;;22.30;59.49
48517;BME280;34310;51.904;4.256;2022-07-23T03:06:02;102009.06;;;22.30;59.64
48517;BME280;34310;51.904;4.256;2022-07-23T03:08:30;102005.53;;;22.29;59.31
48517;BME280;34310;51.904;4.256;2022-07-23T03:10:57;102005.53;;;22.29;59.69
48517;BME280;34310;51.904;4.256;2022-07-23T03:13:25;102001.97;;;22.27;59.47
48517;BME280;34310;51.904;4.256;2022-07-23T03:15:52;101998.44;;;22.27;59.39
48517;BME280;34310;51.904;4.256;2022-07-23T03:18:19;101999.31;;;22.27;59.60
48517;BME280;34310;51.904;4.256;2022-07-23T03:20:47;102006.31;;;22.27;59.41
48517;BME280;34310;51.904;4.256;2022-07-23T03:23:15;102012.38;;;22.25;59.56
48517;BME280;34310;51.904;4.256;2022-07-23T03:25:42;102015.00;;;22.25;59.50
48517;BME280;34310;51.904;4.256;2022-07-23T03:28:10;102010.59;;;22.24;59.78
48517;BME280;34310;51.904;4.256;2022-07-23T03:30:37;102018.47;;;22.24;59.66
48517;BME280;34310;51.904;4.256;2022-07-23T03:33:04;102015.78;;;22.23;59.72
48517;BME280;34310;51.904;4.256;2022-07-23T03:35:32;102022.78;;;22.22;59.86
48517;BME280;34310;51.904;4.256;2022-07-23T03:38:01;102018.41;;;22.23;59.62
48517;BME280;34310;51.904;4.256;2022-07-23T03:40:28;102022.78;;;22.22;59.66
48517;BME280;34310;51.904;4.256;2022-07-23T03:42:56;102012.19;;;22.21;59.90
48517;BME280;34310;51.904;4.256;2022-07-23T03:45:23;102020.97;;;22.21;59.54
48517;BME280;34310;51.904;4.256;2022-07-23T03:47:50;102016.63;;;22.22;59.90
48517;BME280;34310;51.904;4.256;2022-07-23T03:50:18;102014.81;;;22.21;59.79
48517;BME280;34310;51.904;4.256;2022-07-23T03:52:45;102018.28;;;22.20;59.70
48517;BME280;34310;51.904;4.256;2022-07-23T03:55:12;102020.94;;;22.20;59.88
48517;BME280;34310;51.904;4.256;2022-07-23T03:57:40;102017.41;;;22.19;60.05
48517;BME280;34310;51.904;4.256;2022-07-23T04:00:09;102028.75;;;22.18;59.99
48517;BME280;34310;51.904;4.256;2022-07-23T04:02:37;102020.84;;;22.18;59.79
48517;BME280;34310;51.904;4.256;2022-07-23T04:05:05;102019.06;;;22.17;59.89
48517;BME280;34310;51.904;4.256;2022-07-23T04:07:33;102017.28;;;22.16;59.91
48517;BME280;34310;51.904;4.256;2022-07-23T04:10:00;102022.59;;;22.18;59.89
48517;BME280;34310;51.904;4.256;2022-07-23T04:12:27;102025.22;;;22.18;59.76
48517;BME280;34310;51.904;4.256;2022-07-23T04:14:55;102026.97;;;22.17;60.06
48517;BME280;34310;51.904;4.256;2022-07-23T04:17:22;102026.13;;;22.18;59.93
48517;BME280;34310;51.904;4.256;2022-07-23T04:19:49;102020.84;;;22.18;59.89
48517;BME280;34310;51.904;4.256;2022-07-23T04:22:17;102028.75;;;22.18;59.88
48517;BME280;34310;51.904;4.256;2022-07-23T04:24:44;102020.78;;;22.17;59.79
48517;BME280;34310;51.904;4.256;2022-07-23T04:27:11;102021.69;;;22.17;59.89
48517;BME280;34310;51.904;4.256;2022-07-23T04:29:39;102023.44;;;22.17;59.96
48517;BME280;34310;51.904;4.256;2022-07-23T04:32:06;102020.78;;;22.17;60.00
48517;BME280;34310;51.904;4.256;2022-07-23T04:34:33;102026.97;;;22.17;59.75
48517;BME280;34310;51.904;4.256;2022-07-23T04:37:01;102028.69;;;22.17;59.85
48517;BME280;34310;51.904;4.256;2022-07-23T04:39:28;102031.31;;;22.17;59.70
48517;BME280;34310;51.904;4.256;2022-07-23T04:41:55;102029.59;;;22.17;59.83
48517;BME280;34310;51.904;4.256;2022-07-23T04:44:23;102027.78;;;22.16;59.73
48517;BME280;34310;51.904;4.256;2022-07-23T04:46:50;102035.75;;;22.18;59.77
48517;BME280;34310;51.904;4.256;2022-07-23T04:49:20;102036.66;;;22.18;59.62
48517;BME280;34310;51.904;4.256;2022-07-23T04:51:47;102040.16;;;22.19;59.76
48517;BME280;34310;51.904;4.256;2022-07-23T04:54:15;102044.53;;;22.18;59.92
48517;BME280;34310;51.904;4.256;2022-07-23T04:56:42;102042.81;;;22.19;59.92
48517;BME280;34310;51.904;4.256;2022-07-23T04:59:10;102034.91;;;22.19;59.83
48517;BME280;34310;51.904;4.256;2022-07-23T05:01:37;102040.16;;;22.19;59.83
48517;BME280;34310;51.904;4.256;2022-07-23T05:04:05;102038.44;;;22.19;59.76
48517;BME280;34310;51.904;4.256;2022-07-23T05:06:32;102041.06;;;22.19;59.62
48517;BME280;34310;51.904;4.256;2022-07-23T05:08:59;102037.59;;;22.20;59.55
48517;BME280;34310;51.904;4.256;2022-07-23T05:11:27;102042.88;;;22.20;59.74
48517;BME280;34310;51.904;4.256;2022-07-23T05:13:54;102034.06;;;22.20;59.50
48517;BME280;34310;51.904;4.256;2022-07-23T05:16:22;102028.81;;;22.20;59.65
48517;BME280;34310;51.904;4.256;2022-07-23T05:18:49;102029.72;;;22.20;59.50
48517;BME280;34310;51.904;4.256;2022-07-23T05:21:17;102027.91;;;22.19;59.80
48517;BME280;34310;51.904;4.256;2022-07-23T05:23:44;102032.34;;;22.20;59.79
48517;BME280;34310;51.904;4.256;2022-07-23T05:26:11;102041.97;;;22.20;59.56
48517;BME280;34310;51.904;4.256;2022-07-23T05:28:38;102035.88;;;22.21;59.81
48517;BME280;34310;51.904;4.256;2022-07-23T05:31:06;102046.47;;;22.22;59.58
48517;BME280;34310;51.904;4.256;2022-07-23T05:33:33;102041.19;;;22.22;59.65
48517;BME280;34310;51.904;4.256;2022-07-23T05:36:02;102040.34;;;22.23;59.75
48517;BME280;34310;51.904;4.256;2022-07-23T05:38:31;102042.16;;;22.24;59.46
48517;BME280;34310;51.904;4.256;2022-07-23T05:40:58;102051.84;;;22.25;59.53
48517;BME280;34310;51.904;4.256;2022-07-23T05:43:26;102046.59;;;22.25;59.74
48517;BME280;34310;51.904;4.256;2022-07-23T05:45:54;102036.97;;;22.26;59.72
48517;BME280;34310;51.904;4.256;2022-07-23T05:48:21;102049.31;;;22.27;59.70
48517;BME280;34310;51.904;4.256;2022-07-23T05:50:49;102044.13;;;22.29;59.68
48517;BME280;34310;51.904;4.256;2022-07-23T05:53:16;102046.81;;;22.30;59.61
48517;BME280;34310;51.904;4.256;2022-07-23T05:55:43;102045.97;;;22.31;59.53
48517;BME280;34310;51.904;4.256;2022-07-23T05:58:10;102051.28;;;22.33;59.32
48517;BME280;34310;51.904;4.256;2022-07-23T06:00:38;102046.88;;;22.32;59.22
48517;BME280;34310;51.904;4.256;2022-07-23T06:03:05;102048.66;;;22.33;59.42
48517;BME280;34310;51.904;4.256;2022-07-23T06:05:33;102044.31;;;22.33;59.34
48517;BME280;34310;51.904;4.256;2022-07-23T06:08:00;102052.19;;;22.33;59.18
48517;BME280;34310;51.904;4.256;2022-07-23T06:10:28;102054.88;;;22.35;58.97
48517;BME280;34310;51.904;4.256;2022-07-23T06:12:55;102059.38;;;22.37;59.12
48517;BME280;34310;51.904;4.256;2022-07-23T06:15:28;102053.28;;;22.38;58.98
48517;BME280;34310;51.904;4.256;2022-07-23T06:17:57;102055.97;;;22.40;59.10
48517;BME280;34310;51.904;4.256;2022-07-23T06:20:24;102056.03;;;22.41;59.20
48517;BME280;34310;51.904;4.256;2022-07-23T06:22:52;102057.00;;;22.43;58.89
48517;BME280;34310;51.904;4.256;2022-07-23T06:25:19;102058.78;;;22.44;58.87
48517;BME280;34310;51.904;4.256;2022-07-23T06:27:47;102052.63;;;22.44;59.05
48517;BME280;34310;51.904;4.256;2022-07-23T06:30:15;102054.50;;;22.46;58.77
48517;BME280;34310;51.904;4.256;2022-07-23T06:32:46;102058.03;;;22.47;58.95
48517;BME280;34310;51.904;4.256;2022-07-23T06:35:13;102051.91;;;22.48;58.98
48517;BME280;34310;51.904;4.256;2022-07-23T06:37:40;102039.66;;;22.48;58.93
48517;BME280;34310;51.904;4.256;2022-07-23T06:40:08;102045.00;;;22.50;58.84
48517;BME280;34310;51.904;4.256;2022-07-23T06:42:35;102047.69;;;22.51;58.73
48517;BME280;34310;51.904;4.256;2022-07-23T06:45:05;102059.09;;;22.52;58.50
48517;BME280;34310;51.904;4.256;2022-07-23T06:47:33;102060.91;;;22.53;58.73
48517;BME280;34310;51.904;4.256;2022-07-23T06:50:00;102049.47;;;22.52;58.69
48517;BME280;34310;51.904;4.256;2022-07-23T06:52:28;102060.91;;;22.53;58.51
48517;BME280;34310;51.904;4.256;2022-07-23T06:54:55;102060.00;;;22.52;58.81
48517;BME280;34310;51.904;4.256;2022-07-23T06:57:22;102053.00;;;22.53;58.59
48517;BME280;34310;51.904;4.256;2022-07-23T06:59:52;102053.00;;;22.53;58.72
48517;BME280;34310;51.904;4.256;2022-07-23T07:02:22;102050.38;;;22.53;58.68
48517;BME280;34310;51.904;4.256;2022-07-23T07:04:50;102050.38;;;22.53;58.55
48517;BME280;34310;51.904;4.256;2022-07-23T07:07:17;102054.75;;;22.52;58.39
48517;BME280;34310;51.904;4.256;2022-07-23T07:09:44;102060.91;;;22.53;58.55
48517;BME280;34310;51.904;4.256;2022-07-23T07:12:14;102059.16;;;22.53;58.50
48517;BME280;34310;51.904;4.256;2022-07-23T07:14:42;102057.44;;;22.54;58.16
48517;BME280;34310;51.904;4.256;2022-07-23T07:17:09;102068.78;;;22.53;58.72
48517;BME280;34310;51.904;4.256;2022-07-23T07:19:37;102070.59;;;22.54;58.66
48517;BME280;34310;51.904;4.256;2022-07-23T07:22:05;102068.78;;;22.53;58.71
48517;BME280;34310;51.904;4.256;2022-07-23T07:24:32;102067.13;;;22.55;58.85
48517;BME280;34310;51.904;4.256;2022-07-23T07:27:04;102075.03;;;22.55;58.60
48517;BME280;34310;51.904;4.256;2022-07-23T07:29:32;102073.38;;;22.57;58.74
48517;BME280;34310;51.904;4.256;2022-07-23T07:31:59;102076.06;;;22.59;58.71
48517;BME280;34310;51.904;4.256;2022-07-23T07:34:27;102078.78;;;22.60;58.76
48517;BME280;34310;51.904;4.256;2022-07-23T07:36:54;102081.41;;;22.60;58.81
48517;BME280;34310;51.904;4.256;2022-07-23T07:39:21;102091.09;;;22.61;58.62
48517;BME280;34310;51.904;4.256;2022-07-23T07:41:49;102082.31;;;22.61;58.61
48517;BME280;34310;51.904;4.256;2022-07-23T07:44:16;102082.38;;;22.62;58.52
48517;BME280;34310;51.904;4.256;2022-07-23T07:46:45;102090.31;;;22.64;58.59
48517;BME280;34310;51.904;4.256;2022-07-23T07:49:13;102092.97;;;22.64;58.38
48517;BME280;34310;51.904;4.256;2022-07-23T07:51:42;102090.38;;;22.65;58.69
48517;BME280;34310;51.904;4.256;2022-07-23T07:54:12;102098.28;;;22.65;58.40
48517;BME280;34310;51.904;4.256;2022-07-23T07:56:39;102102.72;;;22.66;58.46
48517;BME280;34310;51.904;4.256;2022-07-23T07:59:08;102100.09;;;22.66;58.43
48517;BME280;34310;51.904;4.256;2022-07-23T08:01:37;102099.25;;;22.67;58.33
48517;BME280;34310;51.904;4.256;2022-07-23T08:04:04;102103.69;;;22.68;58.47
48517;BME280;34310;51.904;4.256;2022-07-23T08:06:32;102099.31;;;22.69;58.54
48517;BME280;34310;51.904;4.256;2022-07-23T08:08:59;102102.84;;;22.69;58.29
48517;BME280;34310;51.904;4.256;2022-07-23T08:11:27;102105.53;;;22.71;58.51
48517;BME280;34310;51.904;4.256;2022-07-23T08:13:54;102103.81;;;22.71;58.45
48517;BME280;34310;51.904;4.256;2022-07-23T08:16:21;102099.44;;;22.72;58.51
48517;BME280;34310;51.904;4.256;2022-07-23T08:18:49;102103.03;;;22.74;58.49
48517;BME280;34310;51.904;4.256;2022-07-23T08:21:16;102101.28;;;22.74;58.50
48517;BME280;34310;51.904;4.256;2022-07-23T08:23:43;102105.72;;;22.75;58.47
48517;BME280;34310;51.904;4.256;2022-07-23T08:26:11;102095.19;;;22.75;58.33
48517;BME280;34310;51.904;4.256;2022-07-23T08:28:38;102089.09;;;22.76;58.40
48517;BME280;34310;51.904;4.256;2022-07-23T08:31:06;102090.88;;;22.77;58.53
48517;BME280;34310;51.904;4.256;2022-07-23T08:33:33;102087.34;;;22.77;58.56
48517;BME280;34310;51.904;4.256;2022-07-23T08:36:02;102088.25;;;22.77;58.17
48517;BME280;34310;51.904;4.256;2022-07-23T08:38:32;102091.72;;;22.76;57.88
48517;BME280;34310;51.904;4.256;2022-07-23T08:40:59;102090.81;;;22.76;57.25
48517;BME280;34310;51.904;4.256;2022-07-23T08:43:31;102097.75;;;22.74;56.75
48517;BME280;34310;51.904;4.256;2022-07-23T08:46:00;102102.13;;;22.73;56.63
48517;BME280;34310;51.904;4.256;2022-07-23T08:48:30;102103.03;;;22.74;56.21
48517;BME280;34310;51.904;4.256;2022-07-23T08:51:00;102114.44;;;22.74;56.12
48517;BME280;34310;51.904;4.256;2022-07-23T08:53:29;102114.44;;;22.74;56.27
48517;BME280;34310;51.904;4.256;2022-07-23T08:55:59;102114.50;;;22.76;56.06
48517;BME280;34310;51.904;4.256;2022-07-23T08:58:28;102117.16;;;22.76;55.79
48517;BME280;34310;51.904;4.256;2022-07-23T09:00:56;102112.91;;;22.79;56.04
48517;BME280;34310;51.904;4.256;2022-07-23T09:03:35;102112.06;;;22.80;55.57
48517;BME280;34310;51.904;4.256;2022-07-23T09:06:03;102112.06;;;22.80;55.92
48517;BME280;34310;51.904;4.256;2022-07-23T09:08:35;102115.69;;;22.82;56.04
48517;BME280;34310;51.904;4.256;2022-07-23T09:11:07;102116.69;;;22.84;56.11
48517;BME280;34310;51.904;4.256;2022-07-23T09:13:51;102115.75;;;22.84;56.10
48517;BME280;34310;51.904;4.256;2022-07-23T09:16:28;102111.47;;;22.86;55.86
48517;BME280;34310;51.904;4.256;2022-07-23T09:19:05;102113.28;;;22.87;56.02
48517;BME280;34310;51.904;4.256;2022-07-23T09:21:37;102111.53;;;22.88;55.99
48517;BME280;34310;51.904;4.256;2022-07-23T09:24:10;102115.97;;;22.89;56.06
48517;BME280;34310;51.904;4.256;2022-07-23T09:26:42;102112.56;;;22.91;55.90
48517;BME280;34310;51.904;4.256;2022-07-23T09:29:17;102104.72;;;22.93;56.12
48517;BME280;34310;51.904;4.256;2022-07-23T09:32:01;102110.00;;;22.93;56.21
48517;BME280;34310;51.904;4.256;2022-07-23T09:34:34;102103.88;;;22.94;55.82
48517;BME280;34310;51.904;4.256;2022-07-23T09:37:15;102109.22;;;22.95;56.08
48517;BME280;34310;51.904;4.256;2022-07-23T09:39:44;102116.28;;;22.96;56.01
48517;BME280;34310;51.904;4.256;2022-07-23T09:42:21;102110.16;;;22.97;56.16
48517;BME280;34310;51.904;4.256;2022-07-23T09:44:51;102113.75;;;22.99;56.31
48517;BME280;34310;51.904;4.256;2022-07-23T09:47:20;102115.56;;;23.00;56.36
48517;BME280;34310;51.904;4.256;2022-07-23T09:50:09;102119.09;;;23.01;56.42
48517;BME280;34310;51.904;4.256;2022-07-23T09:52:49;102126.22;;;23.03;56.45
48517;BME280;34310;51.904;4.256;2022-07-23T09:55:18;102124.47;;;23.04;56.52
48517;BME280;34310;51.904;4.256;2022-07-23T09:57:46;102118.31;;;23.03;56.16
48517;BME280;34310;51.904;4.256;2022-07-23T10:00:17;102117.53;;;23.06;56.11
48517;BME280;34310;51.904;4.256;2022-07-23T10:02:46;102124.59;;;23.07;56.08
48517;BME280;34310;51.904;4.256;2022-07-23T10:05:14;102129.03;;;23.08;55.61
48517;BME280;34310;51.904;4.256;2022-07-23T10:07:42;102129.09;;;23.09;55.35
48517;BME280;34310;51.904;4.256;2022-07-23T10:10:17;102123.88;;;23.11;55.41
48517;BME280;34310;51.904;4.256;2022-07-23T10:12:45;102128.31;;;23.12;55.10
48517;BME280;34310;51.904;4.256;2022-07-23T10:15:19;102124.84;;;23.13;55.37
48517;BME280;34310;51.904;4.256;2022-07-23T10:17:47;102127.63;;;23.16;55.20
48517;BME280;34310;51.904;4.256;2022-07-23T10:20:15;102126.84;;;23.18;55.36
48517;BME280;34310;51.904;4.256;2022-07-23T10:25:36;102122.59;;;23.22;55.44
48517;BME280;34310;51.904;4.256;2022-07-23T10:28:21;102123.59;;;23.26;55.55
48517;BME280;34310;51.904;4.256;2022-07-23T10:37:02;102117.69;;;23.31;55.63
48517;BME280;34310;51.904;4.256;2022-07-23T10:39:34;102109.81;;;23.33;55.78
48517;BME280;34310;51.904;4.256;2022-07-23T10:42:13;102109.88;;;23.34;55.96
48517;BME280;34310;51.904;4.256;2022-07-23T10:44:46;102109.09;;;23.37;55.73
48517;BME280;34310;51.904;4.256;2022-07-23T10:47:28;102101.31;;;23.40;55.55
48517;BME280;34310;51.904;4.256;2022-07-23T10:50:28;102109.44;;;23.44;55.60
48517;BME280;34310;51.904;4.256;2022-07-23T10:55:43;102107.91;;;23.51;55.46
48517;BME280;34310;51.904;4.256;2022-07-23T10:58:16;102100.91;;;23.52;55.45
48517;BME280;34310;51.904;4.256;2022-07-23T11:00:47;102104.50;;;23.54;55.63
48517;BME280;34310;51.904;4.256;2022-07-23T11:03:35;102106.38;;;23.56;55.54
48517;BME280;34310;51.904;4.256;2022-07-23T11:06:05;102099.44;;;23.58;55.73
48517;BME280;34310;51.904;4.256;2022-07-23T11:08:33;102102.19;;;23.61;55.75
48517;BME280;34310;51.904;4.256;2022-07-23T11:24:07;102096.19;;;23.89;55.29
48517;BME280;34310;51.904;4.256;2022-07-23T11:31:56;102087.00;;;24.02;55.08
48517;BME280;34310;51.904;4.256;2022-07-23T11:36:59;102090.78;;;24.10;54.99
48517;BME280;34310;51.904;4.256;2022-07-23T11:39:29;102087.31;;;24.11;55.16
48517;BME280;34310;51.904;4.256;2022-07-23T11:41:57;102091.78;;;24.14;55.21
48517;BME280;34310;51.904;4.256;2022-07-23T11:44:31;102095.59;;;24.22;54.97
48517;BME280;34310;51.904;4.256;2022-07-23T11:47:05;102082.72;;;24.29;54.82
48517;BME280;34310;51.904;4.256;2022-07-23T11:49:33;102084.72;;;24.36;54.66
48517;BME280;34310;51.904;4.256;2022-07-23T11:52:14;102082.22;;;24.41;54.30
48517;BME280;34310;51.904;4.256;2022-07-23T11:57:34;102086.06;;;24.51;53.93
48517;BME280;34310;51.904;4.256;2022-07-23T12:00:13;102084.44;;;24.54;53.70
48517;BME280;34310;51.904;4.256;2022-07-23T12:02:43;102081.06;;;24.58;53.94
48517;BME280;34310;51.904;4.256;2022-07-23T12:05:23;102082.97;;;24.62;53.73
48517;BME280;34310;51.904;4.256;2022-07-23T12:07:52;102087.53;;;24.68;53.61
48517;BME280;34310;51.904;4.256;2022-07-23T12:10:27;102082.47;;;24.74;53.26
48517;BME280;34310;51.904;4.256;2022-07-23T12:13:00;102082.59;;;24.79;52.16
48517;BME280;34310;51.904;4.256;2022-07-23T12:15:37;102086.22;;;24.82;51.82
48517;BME280;34310;51.904;4.256;2022-07-23T12:18:09;102087.19;;;24.84;51.14
48517;BME280;34310;51.904;4.256;2022-07-23T12:20:43;102083.81;;;24.88;51.08
48517;BME280;34310;51.904;4.256;2022-07-23T12:23:13;102086.56;;;24.91;51.07
48517;BME280;34310;51.904;4.256;2022-07-23T12:25:48;102091.13;;;24.97;50.98
48517;BME280;34310;51.904;4.256;2022-07-23T12:30:50;102078.16;;;25.03;51.30
48517;BME280;34310;51.904;4.256;2022-07-23T12:33:44;102085.34;;;25.09;51.65
48517;BME280;34310;51.904;4.256;2022-07-23T12:36:11;102082.91;;;25.15;51.54
48517;BME280;34310;51.904;4.256;2022-07-23T12:38:46;102081.22;;;25.17;51.85
48517;BME280;34310;51.904;4.256;2022-07-23T12:41:15;102084.00;;;25.21;51.65
48517;BME280;34310;51.904;4.256;2022-07-23T12:43:44;102080.56;;;25.24;51.97
48517;BME280;34310;51.904;4.256;2022-07-23T12:46:19;102079.81;;;25.28;51.72
48517;BME280;34310;51.904;4.256;2022-07-23T12:51:20;102076.34;;;25.30;51.86
48517;BME280;34310;51.904;4.256;2022-07-23T12:56:33;102068.19;;;25.23;52.17
48517;BME280;34310;51.904;4.256;2022-07-23T13:01:36;102075.09;;;25.18;52.50
48517;BME280;34310;51.904;4.256;2022-07-23T13:04:12;102069.75;;;25.16;52.84
48517;BME280;34310;51.904;4.256;2022-07-23T13:06:52;102065.38;;;25.17;52.94
48517;BME280;34310;51.904;4.256;2022-07-23T13:11:49;102062.81;;;25.20;52.96
48517;BME280;34310;51.904;4.256;2022-07-23T13:14:17;102066.34;;;25.20;52.75
48517;BME280;34310;51.904;4.256;2022-07-23T13:16:49;102065.56;;;25.23;52.85
48517;BME280;34310;51.904;4.256;2022-07-23T13:19:19;102071.69;;;25.22;52.97
48517;BME280;34310;51.904;4.256;2022-07-23T13:21:47;102069.00;;;25.20;53.04
48517;BME280;34310;51.904;4.256;2022-07-23T13:24:15;102063.72;;;25.20;53.22
48517;BME280;34310;51.904;4.256;2022-07-23T13:26:42;102068.09;;;25.20;53.01
48517;BME280;34310;51.904;4.256;2022-07-23T13:29:10;102055.78;;;25.20;53.22
48517;BME280;34310;51.904;4.256;2022-07-23T13:31:38;102056.63;;;25.19;53.44
48517;BME280;34310;51.904;4.256;2022-07-23T13:34:06;102052.28;;;25.21;53.42
48517;BME280;34310;51.904;4.256;2022-07-23T13:36:35;102055.88;;;25.23;53.33
48517;BME280;34310;51.904;4.256;2022-07-23T13:39:03;102049.69;;;25.23;53.35
48517;BME280;34310;51.904;4.256;2022-07-23T13:41:32;102057.72;;;25.26;53.05
48517;BME280;34310;51.904;4.256;2022-07-23T13:44:02;102058.59;;;25.26;53.29
48517;BME280;34310;51.904;4.256;2022-07-23T13:46:30;102053.31;;;25.26;52.83
48517;BME280;34310;51.904;4.256;2022-07-23T13:48:58;102055.97;;;25.26;52.64